Time;durP1;ratioP1;P1;durP2;ratioP2;P2;SDS_P1;SDS_P2;PMS_P1;PMS_P2;Temp;Humidity;BMP_temperature;BMP_pressure;BME280_temperature;BME280_humidity;BME280_pressure;Samples;Min_cycle;Max_cycle;Signal;HPM_P1;HPM_P2
2022/01/31 00:02:03;;;;;;;15.08;4.28;;;;;;;1.52;66.43;96211.28;1740878;81;21360;-81
2022/01/31 00:04:29;;;;;;;8.80;3.67;;;;;;;1.50;65.82;96203.73;1740682;82;20972;-81
2022/01/31 00:06:56;;;;;;;16.60;5.75;;;;;;;1.51;65.94;96205.82;1740468;82;21371;-81
2022/01/31 00:09:23;;;;;;;12.50;4.05;;;;;;;1.50;66.35;96218.28;1740854;81;21013;-82
2022/01/31 00:12:03;;;;;;;12.78;3.37;;;;;;;1.49;65.96;96205.14;1740800;82;20980;-82
2022/01/31 00:17:08;;;;;;;16.73;4.33;;;;;;;1.46;66.14;96200.25;1740873;81;21346;-81
2022/01/31 00:19:35;;;;;;;9.85;3.30;;;;;;;1.44;66.06;96204.70;1740864;82;20972;-81
2022/01/31 00:22:03;;;;;;;11.10;3.58;;;;;;;1.43;66.27;96204.36;1740872;82;21384;-82
2022/01/31 00:24:28;;;;;;;15.53;4.12;;;;;;;1.42;65.42;96202.27;1740589;82;20969;-81
2022/01/31 00:26:54;;;;;;;11.80;3.27;;;;;;;1.41;65.74;96204.97;1740625;81;21454;-81
2022/01/31 00:29:20;;;;;;;15.88;4.22;;;;;;;1.40;65.84;96191.36;1742573;81;21000;-81
2022/01/31 00:31:46;;;;;;;14.98;5.33;;;;;;;1.41;66.16;96201.12;1745145;81;20977;-81
2022/01/31 00:34:12;;;;;;;13.95;3.90;;;;;;;1.40;66.57;96200.79;1740669;82;20981;-82
2022/01/31 00:36:38;;;;;;;11.90;3.62;;;;;;;1.38;66.46;96198.36;1740858;82;20960;-81
2022/01/31 00:39:04;;;;;;;9.95;3.75;;;;;;;1.36;66.32;96187.44;1740956;81;21335;-81
2022/01/31 00:41:30;;;;;;;11.60;3.50;;;;;;;1.36;65.20;96190.47;1740898;82;20957;-81
2022/01/31 00:44:46;;;;;;;14.47;5.45;;;;;;;1.35;65.94;96183.27;1740706;81;21040;-81
2022/01/31 00:46:29;;;;;;;7.53;3.25;;;;;;;1.34;65.58;96169.31;1727049;82;21000;-82
2022/01/31 00:48:51;;;;;;;9.60;3.92;;;;;;;1.32;65.07;96164.80;1740125;82;21032;-82
2022/01/31 00:51:16;;;;;;;13.00;4.08;;;;;;;1.30;65.12;96183.29;1740738;81;20926;-81
2022/01/31 00:53:43;;;;;;;14.00;4.05;;;;;;;1.30;65.03;96165.38;1736773;81;20961;-81
2022/01/31 00:56:09;;;;;;;10.58;4.42;;;;;;;1.28;65.20;96153.98;1731511;82;20992;-81
2022/01/31 00:58:34;;;;;;;11.10;3.62;;;;;;;1.26;65.18;96155.06;1740774;82;20977;-81
2022/01/31 01:01:00;;;;;;;10.08;3.33;;;;;;;1.25;64.89;96161.13;1740833;82;21004;-81
2022/01/31 01:03:26;;;;;;;10.20;3.45;;;;;;;1.21;64.97;96142.66;1740772;82;21032;-81
2022/01/31 01:05:52;;;;;;;16.90;4.67;;;;;;;1.17;65.25;96151.08;1740718;82;20956;-82
2022/01/31 01:08:18;;;;;;;10.53;4.35;;;;;;;1.16;64.23;96148.17;1740654;82;21344;-81
2022/01/31 01:10:44;;;;;;;10.23;3.72;;;;;;;1.15;64.64;96148.31;1740662;82;21023;-82
2022/01/31 01:13:12;;;;;;;10.10;3.02;;;;;;;1.13;64.79;96139.92;1740794;82;20956;-81
2022/01/31 01:15:38;;;;;;;7.70;2.55;;;;;;;1.11;65.17;96146.92;1740744;82;20948;-81
2022/01/31 01:18:03;;;;;;;9.10;2.45;;;;;;;1.10;64.14;96163.22;1740904;82;21319;-81
2022/01/31 01:20:30;;;;;;;9.98;3.15;;;;;;;1.08;63.21;96158.23;1740785;82;21408;-82
2022/01/31 01:22:55;;;;;;;11.35;3.25;;;;;;;1.08;64.65;96147.19;1740708;82;20961;-81
2022/01/31 01:25:22;;;;;;;8.48;2.92;;;;;;;1.05;65.12;96146.17;1740730;82;21316;-82
2022/01/31 01:27:51;;;;;;;11.83;4.92;;;;;;;1.03;63.96;96153.98;1740727;82;21077;-82
2022/01/31 01:30:17;;;;;;;11.57;3.37;;;;;;;1.03;64.21;96151.89;1735336;81;21431;-81
2022/01/31 01:32:58;;;;;;;8.85;3.50;;;;;;;1.01;64.00;96144.81;1688486;83;21012;-81
2022/01/31 01:35:13;;;;;;;10.88;3.92;;;;;;;1.00;63.79;96130.41;1729754;83;20993;-81
2022/01/31 01:37:39;;;;;;;11.05;3.22;;;;;;;0.98;62.66;96131.01;1732596;82;21041;-82
2022/01/31 01:40:08;;;;;;;9.83;3.15;;;;;;;0.97;64.61;96140.40;1732730;83;21029;-82
2022/01/31 01:42:34;;;;;;;11.80;3.35;;;;;;;0.97;64.53;96135.75;1732703;83;21072;-81
2022/01/31 01:45:00;;;;;;;7.65;3.33;;;;;;;0.97;65.14;96138.31;1732414;82;21053;-82
2022/01/31 01:47:26;;;;;;;11.90;3.25;;;;;;;0.96;65.20;96143.09;1732674;82;21005;-82
2022/01/31 01:49:52;;;;;;;11.00;3.52;;;;;;;0.96;65.18;96141.81;1732689;82;20953;-81
2022/01/31 01:52:18;;;;;;;8.83;3.05;;;;;;;0.95;64.62;96132.05;1732688;82;21344;-81
2022/01/31 01:54:46;;;;;;;9.33;3.25;;;;;;;0.95;64.37;96118.45;1722877;81;20992;-81
2022/01/31 01:57:12;;;;;;;9.53;3.00;;;;;;;0.95;64.03;96110.77;1714019;83;21436;-81
2022/01/31 01:59:38;;;;;;;11.35;3.83;;;;;;;0.95;64.57;96105.19;1702034;84;20973;-81
2022/01/31 02:02:05;;;;;;;11.40;3.45;;;;;;;0.93;64.11;96098.11;1701958;84;21001;-82
2022/01/31 02:04:31;;;;;;;9.33;4.05;;;;;;;0.95;64.68;96101.34;1701751;84;21025;-81
2022/01/31 02:06:57;;;;;;;8.05;2.40;;;;;;;0.94;64.66;96086.13;1681914;84;20958;-81
2022/01/31 02:09:25;;;;;;;10.53;2.50;;;;;;;0.93;63.58;96081.95;1701988;84;20953;-82
2022/01/31 02:11:54;;;;;;;7.90;3.02;;;;;;;0.92;64.25;96073.94;1702195;84;20970;-81
2022/01/31 02:14:18;;;;;;;9.50;3.45;;;;;;;0.90;63.69;96073.61;1701884;84;21375;-81
2022/01/31 02:16:44;;;;;;;7.03;3.00;;;;;;;0.89;64.14;96062.23;1702006;84;20989;-82
2022/01/31 02:19:14;;;;;;;9.40;3.00;;;;;;;0.87;63.76;96062.83;1701982;84;21017;-81
2022/01/31 02:21:37;;;;;;;9.38;3.60;;;;;;;0.86;63.93;96059.46;1701668;84;21064;-81
2022/01/31 02:24:03;;;;;;;9.13;2.98;;;;;;;0.88;64.51;96055.50;1701917;84;21116;-81
2022/01/31 02:26:29;;;;;;;8.65;3.35;;;;;;;0.85;64.37;96053.20;1701952;84;21044;-82
2022/01/31 02:28:56;;;;;;;9.78;3.60;;;;;;;0.84;64.12;96051.58;1701828;84;20966;-82
2022/01/31 02:31:22;;;;;;;8.80;3.40;;;;;;;0.82;64.12;96045.80;1701835;84;21416;-81
2022/01/31 02:33:48;;;;;;;11.50;3.10;;;;;;;0.82;64.04;96046.60;1702226;84;21009;-81
2022/01/31 02:36:14;;;;;;;9.80;3.02;;;;;;;0.81;64.06;96035.20;1701863;84;21097;-81
2022/01/31 02:38:41;;;;;;;11.80;2.72;;;;;;;0.80;63.66;96038.69;1701981;84;21108;-81
2022/01/31 02:41:07;;;;;;;8.28;3.17;;;;;;;0.79;63.76;96031.48;1702156;84;21030;-82
2022/01/31 02:43:33;;;;;;;8.83;3.55;;;;;;;0.78;64.13;96028.59;1702135;84;21458;-82
2022/01/31 02:45:59;;;;;;;9.03;3.20;;;;;;;0.78;63.86;96027.31;1702321;84;20982;-82
2022/01/31 02:48:25;;;;;;;11.20;3.42;;;;;;;0.77;64.34;96031.28;1702144;84;20949;-82
2022/01/31 02:50:52;;;;;;;12.70;3.80;;;;;;;0.79;64.33;96031.96;1702285;84;21032;-81
2022/01/31 02:53:26;;;;;;;8.75;3.25;;;;;;;0.79;64.43;96028.13;1702002;84;21371;-81
2022/01/31 02:55:54;;;;;;;10.00;2.83;;;;;;;0.77;63.78;96033.84;1702071;84;21468;-81
2022/01/31 02:58:20;;;;;;;10.45;3.25;;;;;;;0.76;63.75;96038.15;1702032;84;21132;-82
2022/01/31 03:00:46;;;;;;;11.00;3.75;;;;;;;0.74;63.76;96033.63;1681734;84;20990;-81
2022/01/31 03:03:11;;;;;;;7.90;2.80;;;;;;;0.73;63.38;96021.79;1701934;84;21356;-81
2022/01/31 03:05:37;;;;;;;8.30;3.00;;;;;;;0.72;61.55;96020.17;1702002;84;20962;-82
2022/01/31 03:08:06;;;;;;;8.63;2.52;;;;;;;0.71;63.06;96016.47;1682106;84;21024;-82
2022/01/31 03:10:32;;;;;;;9.60;2.67;;;;;;;0.72;63.16;96015.06;1702341;84;21013;-82
2022/01/31 03:12:57;;;;;;;7.42;2.67;;;;;;;0.70;62.90;96015.66;1702244;84;21349;-82
2022/01/31 03:15:23;;;;;;;13.35;3.50;;;;;;;0.69;62.98;96005.56;1702093;84;21029;-82
2022/01/31 03:17:49;;;;;;;11.63;3.85;;;;;;;0.68;63.63;96002.67;1702156;84;20946;-82
2022/01/31 03:20:17;;;;;;;7.08;3.45;;;;;;;0.69;63.45;95994.06;1702362;84;21016;-81
2022/01/31 03:22:43;;;;;;;9.20;2.80;;;;;;;0.67;63.60;95997.22;1702059;84;21021;-82
2022/01/31 03:25:09;;;;;;;10.60;3.33;;;;;;;0.65;63.31;95992.23;1702115;84;21428;-81
2022/01/31 03:27:34;;;;;;;9.48;2.50;;;;;;;0.64;63.18;95995.70;1701924;84;21073;-82
2022/01/31 03:30:00;;;;;;;9.78;4.78;;;;;;;0.62;63.11;95979.69;1701784;84;21073;-82
2022/01/31 03:32:26;;;;;;;12.45;3.08;;;;;;;0.62;62.99;95975.85;1702188;84;20977;-82
2022/01/31 03:34:52;;;;;;;10.18;3.15;;;;;;;0.60;63.33;95968.31;1681956;84;20962;-81
2022/01/31 03:37:17;;;;;;;9.13;3.02;;;;;;;0.59;63.12;95971.01;1702118;84;21427;-81
2022/01/31 03:39:43;;;;;;;11.22;3.35;;;;;;;0.55;63.13;95969.66;1702060;84;21024;-81
2022/01/31 03:42:09;;;;;;;9.68;3.10;;;;;;;0.54;63.32;95966.77;1701968;84;20926;-81
2022/01/31 03:44:35;;;;;;;12.15;3.65;;;;;;;0.52;63.53;95960.98;1702007;84;21337;-81
2022/01/31 03:47:00;;;;;;;9.25;3.12;;;;;;;0.54;63.73;95957.81;1702066;84;20993;-81
2022/01/31 03:49:26;;;;;;;10.72;3.70;;;;;;;0.53;63.70;95955.73;1729921;83;20993;-81
2022/01/31 03:51:52;;;;;;;12.25;3.65;;;;;;;0.52;63.90;95954.11;1732898;82;21419;-81
2022/01/31 03:54:18;;;;;;;9.08;3.02;;;;;;;0.51;64.16;95946.11;1732919;82;20957;-81
2022/01/31 03:56:44;;;;;;;10.35;3.30;;;;;;;0.51;64.15;95942.27;1732595;83;21013;-82
2022/01/31 03:59:09;;;;;;;13.75;4.25;;;;;;;0.51;63.88;95932.52;1732891;83;21364;-81
2022/01/31 04:01:35;;;;;;;12.88;4.33;;;;;;;0.51;64.47;95926.94;1732796;83;21045;-82
2022/01/31 04:04:01;;;;;;;13.30;3.45;;;;;;;0.53;64.76;95928.08;1732817;82;21076;-82
2022/01/31 04:06:27;;;;;;;13.13;4.85;;;;;;;0.54;64.97;95924.58;1732930;83;21017;-81
2022/01/31 04:08:52;;;;;;;12.85;3.98;;;;;;;0.55;65.19;95923.17;1732965;82;21372;-81
2022/01/31 04:11:18;;;;;;;10.18;3.77;;;;;;;0.56;65.37;95922.23;1732773;83;21052;-82
2022/01/31 04:13:44;;;;;;;13.08;5.42;;;;;;;0.59;65.28;95924.98;1732852;83;21025;-82
2022/01/31 04:16:10;;;;;;;10.32;4.30;;;;;;;0.56;65.71;95924.78;1732988;82;21308;-81
2022/01/31 04:18:35;;;;;;;15.25;4.35;;;;;;;0.53;65.64;95918.66;1732816;82;21095;-81
2022/01/31 04:21:01;;;;;;;12.50;4.50;;;;;;;0.50;65.67;95916.37;1712226;83;21050;-82
2022/01/31 04:23:28;;;;;;;15.65;5.62;;;;;;;0.51;65.96;95905.67;1732880;83;21438;-81
2022/01/31 04:26:02;;;;;;;12.15;4.92;;;;;;;0.50;66.09;95898.48;1732677;82;21052;-81
2022/01/31 04:28:29;;;;;;;15.90;4.80;;;;;;;0.48;65.94;95899.05;1731746;83;21071;-81
2022/01/31 04:30:57;;;;;;;15.10;6.20;;;;;;;0.47;66.09;95894.08;1741819;82;21065;-81
2022/01/31 04:33:21;;;;;;;14.38;6.22;;;;;;;0.48;66.29;95891.86;1750979;82;21017;-82
2022/01/31 04:35:47;;;;;;;15.18;4.80;;;;;;;0.45;66.28;95880.15;1741822;82;20992;-81
2022/01/31 04:38:13;;;;;;;12.45;4.85;;;;;;;0.44;66.33;95882.84;1740955;82;20995;-81
2022/01/31 04:40:38;;;;;;;15.48;5.42;;;;;;;0.43;66.30;95878.67;1741091;82;21034;-81
2022/01/31 04:43:04;;;;;;;17.60;7.00;;;;;;;0.42;66.48;95879.61;1741009;82;21375;-82
2022/01/31 04:45:30;;;;;;;18.17;7.03;;;;;;;0.40;66.51;95873.36;1740958;82;20957;-82
2022/01/31 04:47:56;;;;;;;14.47;5.65;;;;;;;0.41;66.58;95877.53;1740862;82;21027;-82
2022/01/31 04:50:21;;;;;;;15.23;6.35;;;;;;;0.42;66.83;95881.70;1720092;82;20949;-82
2022/01/31 04:52:47;;;;;;;13.58;5.20;;;;;;;0.42;66.91;95877.05;1740982;82;21336;-81
2022/01/31 04:55:14;;;;;;;16.20;6.45;;;;;;;0.44;67.25;95881.09;1740489;82;20977;-81
2022/01/31 04:57:40;;;;;;;14.43;5.87;;;;;;;0.45;67.18;95871.67;1739044;81;21078;-81
2022/01/31 05:00:08;;;;;;;19.40;5.80;;;;;;;0.45;67.29;95873.76;1740734;82;22128;-81
2022/01/31 05:02:35;;;;;;;13.38;6.00;;;;;;;0.46;67.40;95870.27;1740772;82;20991;-82
2022/01/31 05:05:01;;;;;;;15.32;6.17;;;;;;;0.46;67.29;95853.65;1740764;82;21344;-81
2022/01/31 05:07:27;;;;;;;13.30;4.85;;;;;;;0.46;67.38;95852.84;1740681;82;20968;-81
2022/01/31 05:09:52;;;;;;;14.10;5.20;;;;;;;0.45;67.02;95845.64;1740889;82;21000;-82
2022/01/31 05:12:18;;;;;;;12.05;5.47;;;;;;;0.43;66.88;95842.41;1740849;81;20939;-81
2022/01/31 05:14:44;;;;;;;16.48;4.92;;;;;;;0.43;67.22;95841.61;1740777;81;21004;-81
2022/01/31 05:17:11;;;;;;;15.05;5.25;;;;;;;0.44;67.20;95829.97;1740668;82;21031;-82
2022/01/31 05:19:37;;;;;;;16.40;6.00;;;;;;;0.47;67.12;95823.78;1740799;81;20917;-81
2022/01/31 05:22:03;;;;;;;16.05;5.95;;;;;;;0.46;67.06;95819.14;1741028;81;21391;-81
2022/01/31 05:24:29;;;;;;;14.47;5.50;;;;;;;0.45;67.08;95821.36;1740702;82;21015;-81
2022/01/31 05:26:54;;;;;;;18.25;5.15;;;;;;;0.42;66.91;95814.44;1740743;81;20965;-82
2022/01/31 05:29:21;;;;;;;17.42;5.00;;;;;;;0.42;67.12;95811.88;1740832;82;20957;-81
2022/01/31 05:31:48;;;;;;;12.70;4.75;;;;;;;0.43;66.92;95813.49;1734244;82;20974;-82
2022/01/31 05:34:15;;;;;;;19.37;8.48;;;;;;;0.46;67.23;95810.67;1732557;82;21004;-82
2022/01/31 05:36:41;;;;;;;47.73;15.32;;;;;;;0.48;67.28;95808.78;1732735;83;21445;-82
2022/01/31 05:39:07;;;;;;;34.48;12.95;;;;;;;0.49;67.27;95804.84;1713286;82;20988;-81
2022/01/31 05:41:33;;;;;;;839.32;362.17;;;;;;;0.52;67.28;95798.65;1740232;82;21029;-81
2022/01/31 05:43:59;;;;;;;954.72;368.70;;;;;;;0.53;67.16;95792.59;1733565;82;21017;-81
2022/01/31 05:46:25;;;;;;;333.43;87.95;;;;;;;0.55;67.05;95783.84;1732671;83;21327;-82
2022/01/31 05:48:51;;;;;;;247.12;61.65;;;;;;;0.55;66.69;95776.17;1732703;82;20949;-81
2022/01/31 05:51:21;;;;;;;238.47;65.72;;;;;;;0.54;66.67;95769.92;1732483;82;20950;-81
2022/01/31 05:53:49;;;;;;;433.55;144.02;;;;;;;0.53;66.60;95770.86;1732448;83;21000;-81
2022/01/31 05:56:16;;;;;;;552.55;164.18;;;;;;;0.51;66.77;95764.61;1731212;81;20949;-81
2022/01/31 05:58:42;;;;;;;275.98;63.45;;;;;;;0.52;66.58;95759.83;1732037;83;21098;-82
2022/01/31 06:01:08;;;;;;;199.40;47.53;;;;;;;0.53;66.41;95767.03;1732723;83;21064;-81
2022/01/31 06:03:34;;;;;;;144.15;32.90;;;;;;;0.50;66.42;95759.16;1733037;82;21013;-81
2022/01/31 06:06:00;;;;;;;226.85;77.50;;;;;;;0.51;66.48;95763.33;1732526;82;20969;-82
2022/01/31 06:08:26;;;;;;;743.75;274.80;;;;;;;0.50;66.11;95763.47;1732416;83;20957;-81
2022/01/31 06:10:51;;;;;;;453.98;102.15;;;;;;;0.50;66.28;95762.19;1732766;82;20995;-82
2022/01/31 06:13:23;;;;;;;265.07;54.10;;;;;;;0.49;66.15;95761.86;1732749;82;20982;-81
2022/01/31 06:15:45;;;;;;;218.52;48.52;;;;;;;0.48;66.18;95762.77;1732595;82;20990;-81
2022/01/31 06:18:11;;;;;;;193.35;45.30;;;;;;;0.50;66.40;95757.89;1732932;82;21062;-81
2022/01/31 06:20:37;;;;;;;289.93;68.92;;;;;;;0.53;66.31;95752.97;1732646;82;20997;-81
2022/01/31 06:23:02;;;;;;;938.50;341.02;;;;;;;0.53;66.28;95747.39;1732737;82;20973;-81
2022/01/31 06:25:29;;;;;;;398.73;95.95;;;;;;;0.53;65.90;95745.30;1732607;82;21317;-82
2022/01/31 06:27:55;;;;;;;365.25;78.95;;;;;;;0.51;66.07;95736.97;1732584;82;21001;-82
2022/01/31 06:30:20;;;;;;;370.35;81.53;;;;;;;0.51;66.36;95736.49;1734600;82;21490;-81
2022/01/31 06:32:46;;;;;;;251.52;52.58;;;;;;;0.52;66.18;95732.19;1740740;82;21020;-81
2022/01/31 06:35:13;;;;;;;128.10;28.07;;;;;;;0.53;66.42;95729.49;1740942;82;20989;-81
2022/01/31 06:37:38;;;;;;;124.42;28.57;;;;;;;0.55;66.28;95721.21;1740759;82;21001;-81
2022/01/31 06:40:06;;;;;;;544.85;251.85;;;;;;;0.53;66.41;95718.46;1741019;82;21312;-81
2022/01/31 06:42:31;;;;;;;260.45;67.97;;;;;;;0.55;66.52;95710.18;1740777;82;21367;-81
2022/01/31 06:44:57;;;;;;;99.55;26.55;;;;;;;0.56;65.90;95702.37;1740797;82;20957;-81
2022/01/31 06:47:24;;;;;;;85.00;20.70;;;;;;;0.58;66.28;95703.03;1740935;82;20996;-81
2022/01/31 06:49:50;;;;;;;232.92;50.35;;;;;;;0.60;66.36;95697.31;1740716;82;21416;-82
2022/01/31 06:52:16;;;;;;;49.80;13.75;;;;;;;0.64;66.20;95693.20;1740766;82;21024;-82
2022/01/31 06:54:43;;;;;;;93.87;24.52;;;;;;;0.66;66.30;95698.53;1740897;82;20972;-81
2022/01/31 06:57:09;;;;;;;89.40;25.55;;;;;;;0.67;66.43;95691.20;1718295;82;21008;-82
2022/01/31 06:59:35;;;;;;;43.30;17.12;;;;;;;0.69;66.35;95695.70;1740760;82;20968;-81
2022/01/31 07:02:01;;;;;;;38.80;12.45;;;;;;;0.72;66.26;95697.97;1740665;82;20954;-81
2022/01/31 07:04:26;;;;;;;24.07;8.05;;;;;;;0.75;66.37;95695.61;1740747;81;21033;-81
2022/01/31 07:06:52;;;;;;;13.93;6.65;;;;;;;0.77;66.53;95698.36;1740867;82;21418;-81
2022/01/31 07:09:18;;;;;;;17.60;5.87;;;;;;;0.77;66.43;95691.16;1740770;82;20948;-81
2022/01/31 07:11:44;;;;;;;15.43;6.00;;;;;;;0.76;66.59;95685.71;1740650;82;20949;-81
2022/01/31 07:16:54;;;;;;;24.55;8.48;;;;;;;0.77;66.92;95674.06;1740360;82;21095;-81
2022/01/31 07:19:23;;;;;;;29.10;12.30;;;;;;;0.78;66.99;95673.59;1740837;81;21363;-81
2022/01/31 07:21:49;;;;;;;48.25;15.88;;;;;;;0.79;67.19;95667.53;1740722;82;21020;-81
2022/01/31 07:26:53;;;;;;;28.23;8.15;;;;;;;0.82;67.47;95661.69;1740766;81;20945;-81
2022/01/31 07:29:19;;;;;;;29.77;10.40;;;;;;;0.81;67.56;95657.52;1740875;82;21020;-81
2022/01/31 07:31:45;;;;;;;14.53;5.37;;;;;;;0.81;67.52;95654.96;1735374;81;21434;-81
2022/01/31 07:34:14;;;;;;;31.65;13.60;;;;;;;0.82;67.75;95648.09;1732644;83;21025;-82
2022/01/31 07:36:40;;;;;;;27.05;10.65;;;;;;;0.80;67.70;95648.68;1732727;83;21312;-81
2022/01/31 07:39:05;;;;;;;69.12;33.48;;;;;;;0.81;67.90;95649.02;1732690;82;20965;-81
2022/01/31 07:41:32;;;;;;;41.42;14.75;;;;;;;0.85;67.95;95638.86;1732853;82;20976;-81
2022/01/31 07:43:58;;;;;;;38.30;12.98;;;;;;;0.84;67.86;95635.50;1732876;83;21391;-81
2022/01/31 07:46:24;;;;;;;31.87;10.15;;;;;;;0.88;68.17;95637.30;1732787;82;21053;-82
2022/01/31 07:48:52;;;;;;;43.90;16.50;;;;;;;0.90;68.22;95631.09;1732881;82;21029;-81
2022/01/31 07:51:17;;;;;;;29.98;10.63;;;;;;;0.92;67.88;95624.55;1732654;82;21000;-82
2022/01/31 07:53:44;;;;;;;19.12;8.23;;;;;;;0.94;68.01;95627.77;1732728;83;21005;-82
2022/01/31 07:56:11;;;;;;;17.12;5.87;;;;;;;0.95;68.05;95624.73;1732912;82;21435;-81
2022/01/31 07:58:37;;;;;;;17.75;7.17;;;;;;;0.96;67.95;95621.23;1732773;82;21008;-81
2022/01/31 08:01:04;;;;;;;18.57;6.75;;;;;;;0.98;68.20;95618.89;1732662;83;21009;-81
2022/01/31 08:03:31;;;;;;;19.82;5.12;;;;;;;1.01;67.89;95606.28;1732726;82;20985;-81
2022/01/31 08:05:57;;;;;;;29.45;11.65;;;;;;;1.02;68.21;95608.70;1732799;83;21021;-81
2022/01/31 08:08:24;;;;;;;19.82;6.03;;;;;;;1.07;68.08;95602.67;1732849;82;21435;-81
2022/01/31 08:10:51;;;;;;;13.75;5.47;;;;;;;1.13;68.07;95611.05;1732832;82;21057;-81
2022/01/31 08:13:17;;;;;;;24.15;8.88;;;;;;;1.16;67.65;95602.31;1732686;82;20934;-81
2022/01/31 08:16:01;;;;;;;24.75;10.20;;;;;;;1.19;67.72;95591.78;1732535;82;21032;-81
2022/01/31 08:18:16;;;;;;;21.35;7.78;;;;;;;1.19;67.93;95584.91;1728750;83;20993;-81
2022/01/31 08:20:42;;;;;;;21.35;8.55;;;;;;;1.22;67.79;95579.97;1732745;82;21036;-82
2022/01/31 08:23:09;;;;;;;18.48;6.78;;;;;;;1.24;67.85;95579.83;1732727;82;21407;-81
2022/01/31 08:25:36;;;;;;;72.78;26.87;;;;;;;1.27;67.87;95572.66;1732641;82;21069;-81
2022/01/31 08:28:09;;;;;;;27.65;11.40;;;;;;;1.30;67.71;95569.00;1732665;82;21100;-81
2022/01/31 08:30:38;;;;;;;19.30;8.08;;;;;;;1.35;68.09;95566.36;1732049;83;21009;-81
2022/01/31 08:33:01;;;;;;;19.87;7.87;;;;;;;1.39;67.76;95563.03;1731578;83;20997;-81
2022/01/31 08:38:10;;;;;;;17.98;7.50;;;;;;;1.50;67.73;95563.63;1732820;82;21635;-81
2022/01/31 08:40:38;;;;;;;17.37;6.35;;;;;;;1.54;67.33;95556.94;1732732;82;20957;-81
2022/01/31 08:43:04;;;;;;;16.65;6.75;;;;;;;1.57;67.55;95551.52;1731575;83;20989;-81
2022/01/31 08:45:30;;;;;;;21.05;8.80;;;;;;;1.62;67.13;95543.71;1732568;82;21005;-81
2022/01/31 08:47:55;;;;;;;65.60;36.00;;;;;;;1.65;67.09;95542.16;1732774;82;20950;-81
2022/01/31 08:50:21;;;;;;;21.20;9.35;;;;;;;1.66;67.03;95542.97;1732704;82;20965;-81
2022/01/31 08:52:47;;;;;;;14.65;6.58;;;;;;;1.67;67.20;95544.09;1732765;83;20946;-81
2022/01/31 08:55:14;;;;;;;14.50;5.83;;;;;;;1.69;67.19;95537.55;1732442;83;20997;-81
2022/01/31 08:57:40;;;;;;;17.40;7.17;;;;;;;1.71;66.99;95538.20;1732544;82;21016;-81
2022/01/31 09:00:07;;;;;;;21.05;8.58;;;;;;;1.77;66.49;95537.13;1732623;82;21456;-81
2022/01/31 09:02:48;;;;;;;17.48;6.53;;;;;;;1.76;66.60;95523.98;1732646;83;21045;-81
2022/01/31 09:05:07;;;;;;;13.58;5.08;;;;;;;1.80;66.23;95513.80;1731528;83;20953;-82
2022/01/31 09:07:33;;;;;;;16.23;6.85;;;;;;;1.79;66.26;95517.31;1732733;83;21379;-81
2022/01/31 09:10:00;;;;;;;42.83;19.10;;;;;;;1.84;66.19;95513.50;1732736;82;20981;-81
2022/01/31 09:12:29;;;;;;;17.67;8.38;;;;;;;1.92;66.53;95511.78;1712290;83;21411;-81
2022/01/31 09:14:54;;;;;;;15.83;5.15;;;;;;;2.01;66.16;95498.56;1732516;83;21259;-81
2022/01/31 09:17:20;;;;;;;16.80;5.75;;;;;;;2.06;65.40;95495.06;1732283;83;21076;-82
2022/01/31 09:19:45;;;;;;;12.20;5.10;;;;;;;2.09;65.62;95499.88;1732638;83;21354;-82
2022/01/31 09:22:11;;;;;;;17.77;5.05;;;;;;;2.11;65.60;95492.84;1732495;83;21103;-81
2022/01/31 09:24:39;;;;;;;13.98;6.25;;;;;;;2.17;65.44;95490.97;1732575;82;20973;-81
2022/01/31 09:27:08;;;;;;;18.92;7.30;;;;;;;2.22;65.67;95490.51;1732769;82;20954;-81
2022/01/31 09:29:34;;;;;;;21.57;9.53;;;;;;;2.29;65.71;95496.17;1732323;83;21096;-81
2022/01/31 09:32:02;;;;;;;20.92;7.92;;;;;;;2.33;65.56;95483.84;1732684;82;21419;-82
2022/01/31 09:34:30;;;;;;;18.15;6.55;;;;;;;2.34;65.29;95479.85;1732645;83;20958;-81
2022/01/31 09:36:55;;;;;;;17.87;6.22;;;;;;;2.37;65.12;95473.13;1732521;83;21028;-81
2022/01/31 09:39:21;;;;;;;15.90;6.47;;;;;;;2.37;64.92;95470.56;1732510;83;20996;-81
2022/01/31 09:41:53;;;;;;;19.77;6.75;;;;;;;2.39;65.31;95462.23;1730542;81;20958;-81
2022/01/31 09:44:21;;;;;;;26.87;8.58;;;;;;;2.43;65.33;95461.45;1731613;82;20980;-81
2022/01/31 09:49:16;;;;;;;17.67;6.35;;;;;;;2.35;64.93;95453.73;1705089;83;21037;-81
2022/01/31 09:51:41;;;;;;;19.57;8.00;;;;;;;2.35;64.42;95446.05;1732702;83;21332;-81
2022/01/31 09:54:07;;;;;;;18.82;6.75;;;;;;;2.35;64.18;95442.20;1732561;83;20961;-82
2022/01/31 09:56:37;;;;;;;19.62;6.20;;;;;;;2.35;64.39;95446.05;1732702;83;21044;-82
2022/01/31 09:59:05;;;;;;;18.73;5.80;;;;;;;2.42;64.18;95452.15;1731819;83;21032;-81
2022/01/31 10:01:38;;;;;;;16.35;5.22;;;;;;;2.42;64.09;95444.45;1732629;83;20989;-81
2022/01/31 10:04:18;;;;;;;18.82;5.28;;;;;;;2.39;63.05;95447.34;1732480;83;20970;-82
2022/01/31 10:06:53;;;;;;;18.15;6.05;;;;;;;2.39;63.90;95443.01;1732248;82;21012;-81
2022/01/31 10:09:27;;;;;;;16.12;5.65;;;;;;;2.37;63.12;95421.86;1732293;82;21044;-81
2022/01/31 10:12:08;;;;;;;16.85;5.70;;;;;;;2.36;63.76;95423.30;1732552;83;21041;-82
2022/01/31 10:17:33;;;;;;;14.45;4.95;;;;;;;2.44;63.79;95423.79;1732537;83;20990;-81
2022/01/31 10:20:04;;;;;;;22.70;4.92;;;;;;;2.47;63.41;95403.80;1732712;82;20953;-82
2022/01/31 10:22:32;;;;;;;19.15;5.20;;;;;;;2.51;63.23;95406.84;1732716;83;20957;-81
2022/01/31 10:25:02;;;;;;;17.65;5.50;;;;;;;2.59;63.85;95401.72;1732533;83;21065;-81
2022/01/31 10:27:32;;;;;;;11.53;4.45;;;;;;;2.68;63.43;95398.23;1732686;83;20961;-82
2022/01/31 10:30:16;;;;;;;15.80;4.30;;;;;;;2.69;63.08;95404.97;1732418;82;21398;-81
2022/01/31 10:32:44;;;;;;;15.68;5.75;;;;;;;2.73;62.63;95387.50;1732525;82;21034;-81
2022/01/31 10:35:21;;;;;;;18.60;6.78;;;;;;;2.73;62.76;95393.91;1711786;83;21029;-81
2022/01/31 10:37:47;;;;;;;17.77;6.03;;;;;;;2.66;62.52;95383.48;1732448;82;20985;-81
2022/01/31 10:46:07;;;;;;;20.08;6.30;;;;;;;2.38;62.83;95365.78;1732542;82;21365;-81
2022/01/31 10:52:16;;;;;;;16.05;5.85;;;;;;;2.37;63.17;95353.92;1732549;83;21005;-81
2022/01/31 10:54:26;;;;;;;16.00;5.80;;;;;;;2.43;63.20;95360.17;1722202;83;21405;-81
2022/01/31 10:56:47;;;;;;;16.65;6.05;;;;;;;2.48;63.55;95353.31;1731304;83;20968;-81
2022/01/31 10:59:22;;;;;;;22.27;7.47;;;;;;;2.55;63.77;95341.45;1731330;83;21503;-81
2022/01/31 11:01:53;;;;;;;17.85;6.15;;;;;;;2.62;63.65;95343.73;1732928;83;20993;-81
2022/01/31 11:04:21;;;;;;;22.87;6.60;;;;;;;2.68;63.22;95335.39;1732672;83;21463;-82
2022/01/31 11:06:49;;;;;;;19.48;6.50;;;;;;;2.65;63.00;95337.00;1732752;83;20992;-82
2022/01/31 11:09:17;;;;;;;19.92;8.23;;;;;;;2.68;62.97;95343.09;1732782;83;20973;-82
2022/01/31 11:11:45;;;;;;;25.68;12.60;;;;;;;2.64;62.19;95342.61;1732697;83;21045;-81
2022/01/31 11:14:12;;;;;;;27.75;9.10;;;;;;;2.58;62.75;95351.39;1732745;83;21359;-81
2022/01/31 11:16:40;;;;;;;24.15;8.28;;;;;;;2.60;63.03;95349.47;1732756;83;20996;-81
2022/01/31 11:19:09;;;;;;;22.42;11.18;;;;;;;2.60;62.88;95347.73;1732528;83;20997;-81
2022/01/31 11:21:39;;;;;;;17.50;7.45;;;;;;;2.52;62.19;95346.91;1732504;83;20988;-81
2022/01/31 11:24:20;;;;;;;22.70;7.10;;;;;;;2.47;62.30;95333.77;1732637;83;21101;-81
2022/01/31 11:27:06;;;;;;;23.18;10.72;;;;;;;2.40;62.82;95330.53;1732738;83;21043;-81
2022/01/31 11:29:34;;;;;;;20.62;8.45;;;;;;;2.43;62.82;95334.53;1732664;83;21117;-81
2022/01/31 11:32:00;;;;;;;21.57;7.03;;;;;;;2.44;63.17;95327.20;1712219;83;21059;-82
2022/01/31 11:34:26;;;;;;;19.65;7.90;;;;;;;2.48;62.96;95328.48;1732673;83;21057;-81
2022/01/31 11:36:52;;;;;;;14.55;6.12;;;;;;;2.49;63.34;95322.87;1732770;82;21005;-81
2022/01/31 11:39:18;;;;;;;20.35;7.95;;;;;;;2.51;62.97;95324.79;1732653;83;20973;-82
2022/01/31 11:41:55;;;;;;;20.15;6.42;;;;;;;2.53;62.80;95321.59;1730550;82;20989;-81
2022/01/31 11:44:51;;;;;;;20.50;8.40;;;;;;;2.51;62.20;95322.23;1730932;83;21004;-81
2022/01/31 11:47:22;;;;;;;25.43;10.40;;;;;;;2.44;62.55;95318.67;1732818;82;20953;-81
2022/01/31 11:49:57;;;;;;;21.25;8.00;;;;;;;2.40;62.88;95313.06;1712319;83;21053;-81
2022/01/31 11:52:25;;;;;;;17.62;7.33;;;;;;;2.43;63.36;95314.02;1732552;82;20950;-81
2022/01/31 11:55:00;;;;;;;18.80;6.50;;;;;;;2.47;62.89;95315.34;1732776;82;21015;-81
2022/01/31 11:57:29;;;;;;;20.80;7.80;;;;;;;2.47;62.77;95312.77;1732694;83;21025;-81